sensor_id;sensor_type;location;lat;lon;timestamp;P1;durP1;ratioP1;P2;durP2;ratioP2
33413;SDS011;60055;41.884;12.534;2023-07-29T00:00:41;10.05;;;3.38;;
33413;SDS011;60055;41.884;12.534;2023-07-29T00:03:08;11.32;;;3.22;;
33413;SDS011;60055;41.884;12.534;2023-07-29T00:05:34;12.77;;;3.67;;
33413;SDS011;60055;41.884;12.534;2023-07-29T00:07:59;12.63;;;3.80;;
33413;SDS011;60055;41.884;12.534;2023-07-29T00:10:25;11.65;;;3.53;;
33413;SDS011;60055;41.884;12.534;2023-07-29T00:12:51;8.88;;;3.22;;
33413;SDS011;60055;41.884;12.534;2023-07-29T00:15:16;6.47;;;2.95;;
33413;SDS011;60055;41.884;12.534;2023-07-29T00:17:42;13.25;;;3.80;;
33413;SDS011;60055;41.884;12.534;2023-07-29T00:20:07;11.43;;;3.90;;
33413;SDS011;60055;41.884;12.534;2023-07-29T00:22:33;12.00;;;3.58;;
33413;SDS011;60055;41.884;12.534;2023-07-29T00:24:58;7.97;;;3.33;;
33413;SDS011;60055;41.884;12.534;2023-07-29T00:27:24;8.55;;;3.13;;
33413;SDS011;60055;41.884;12.534;2023-07-29T00:29:50;10.00;;;3.60;;
33413;SDS011;60055;41.884;12.534;2023-07-29T00:32:15;7.93;;;3.03;;
33413;SDS011;60055;41.884;12.534;2023-07-29T00:34:41;8.52;;;3.10;;
33413;SDS011;60055;41.884;12.534;2023-07-29T00:37:06;11.48;;;3.60;;
33413;SDS011;60055;41.884;12.534;2023-07-29T00:39:32;14.40;;;3.70;;
33413;SDS011;60055;41.884;12.534;2023-07-29T00:41:57;15.32;;;3.70;;
33413;SDS011;60055;41.884;12.534;2023-07-29T00:44:23;13.40;;;4.43;;
33413;SDS011;60055;41.884;12.534;2023-07-29T00:46:50;13.80;;;3.97;;
33413;SDS011;60055;41.884;12.534;2023-07-29T00:49:17;11.73;;;4.00;;
33413;SDS011;60055;41.884;12.534;2023-07-29T00:51:43;14.00;;;4.43;;
33413;SDS011;60055;41.884;12.534;2023-07-29T00:54:08;14.95;;;4.25;;
33413;SDS011;60055;41.884;12.534;2023-07-29T00:56:34;14.73;;;4.30;;
33413;SDS011;60055;41.884;12.534;2023-07-29T00:59:01;9.85;;;3.90;;
33413;SDS011;60055;41.884;12.534;2023-07-29T01:01:27;11.52;;;3.90;;
33413;SDS011;60055;41.884;12.534;2023-07-29T01:03:53;11.18;;;3.85;;
33413;SDS011;60055;41.884;12.534;2023-07-29T01:09:25;12.27;;;3.80;;
33413;SDS011;60055;41.884;12.534;2023-07-29T01:12:08;11.68;;;4.18;;
33413;SDS011;60055;41.884;12.534;2023-07-29T01:14:54;13.00;;;4.03;;
33413;SDS011;60055;41.884;12.534;2023-07-29T01:17:33;10.57;;;3.60;;
33413;SDS011;60055;41.884;12.534;2023-07-29T01:22:35;16.05;;;4.00;;
33413;SDS011;60055;41.884;12.534;2023-07-29T01:25:02;11.80;;;4.00;;
33413;SDS011;60055;41.884;12.534;2023-07-29T01:27:28;12.23;;;3.60;;
33413;SDS011;60055;41.884;12.534;2023-07-29T01:29:55;12.75;;;3.70;;
33413;SDS011;60055;41.884;12.534;2023-07-29T01:37:49;11.75;;;3.25;;
33413;SDS011;60055;41.884;12.534;2023-07-29T01:40:20;11.05;;;3.20;;
33413;SDS011;60055;41.884;12.534;2023-07-29T01:42:48;12.27;;;2.92;;
33413;SDS011;60055;41.884;12.534;2023-07-29T01:45:14;11.07;;;3.50;;
33413;SDS011;60055;41.884;12.534;2023-07-29T01:47:40;14.15;;;3.38;;
33413;SDS011;60055;41.884;12.534;2023-07-29T01:50:06;7.85;;;3.00;;
33413;SDS011;60055;41.884;12.534;2023-07-29T01:52:32;9.55;;;3.08;;
33413;SDS011;60055;41.884;12.534;2023-07-29T01:54:58;10.25;;;3.05;;
33413;SDS011;60055;41.884;12.534;2023-07-29T01:57:23;11.65;;;3.00;;
33413;SDS011;60055;41.884;12.534;2023-07-29T01:59:49;10.65;;;2.60;;
33413;SDS011;60055;41.884;12.534;2023-07-29T02:02:14;9.00;;;2.97;;
33413;SDS011;60055;41.884;12.534;2023-07-29T02:04:40;8.27;;;2.97;;
33413;SDS011;60055;41.884;12.534;2023-07-29T02:07:05;8.82;;;2.90;;
33413;SDS011;60055;41.884;12.534;2023-07-29T02:09:31;7.97;;;2.85;;
33413;SDS011;60055;41.884;12.534;2023-07-29T02:11:56;9.68;;;2.65;;
33413;SDS011;60055;41.884;12.534;2023-07-29T02:14:22;8.48;;;2.70;;
33413;SDS011;60055;41.884;12.534;2023-07-29T02:16:48;7.55;;;2.53;;
33413;SDS011;60055;41.884;12.534;2023-07-29T02:19:14;6.95;;;2.95;;
33413;SDS011;60055;41.884;12.534;2023-07-29T02:21:40;10.65;;;2.97;;
33413;SDS011;60055;41.884;12.534;2023-07-29T02:24:05;7.32;;;2.55;;
33413;SDS011;60055;41.884;12.534;2023-07-29T02:26:30;8.50;;;2.58;;
33413;SDS011;60055;41.884;12.534;2023-07-29T02:28:56;9.80;;;2.97;;
33413;SDS011;60055;41.884;12.534;2023-07-29T02:31:22;8.40;;;2.90;;
33413;SDS011;60055;41.884;12.534;2023-07-29T02:33:49;6.22;;;2.70;;
33413;SDS011;60055;41.884;12.534;2023-07-29T02:36:15;7.03;;;2.60;;
33413;SDS011;60055;41.884;12.534;2023-07-29T02:38:41;6.65;;;2.60;;
33413;SDS011;60055;41.884;12.534;2023-07-29T02:41:10;8.32;;;2.40;;
33413;SDS011;60055;41.884;12.534;2023-07-29T02:43:41;6.53;;;2.17;;
33413;SDS011;60055;41.884;12.534;2023-07-29T02:46:08;7.65;;;2.53;;
33413;SDS011;60055;41.884;12.534;2023-07-29T02:48:33;7.55;;;2.33;;
33413;SDS011;60055;41.884;12.534;2023-07-29T02:50:59;5.50;;;2.05;;
33413;SDS011;60055;41.884;12.534;2023-07-29T02:53:24;8.10;;;2.70;;
33413;SDS011;60055;41.884;12.534;2023-07-29T02:55:50;5.60;;;2.40;;
33413;SDS011;60055;41.884;12.534;2023-07-29T02:58:16;6.70;;;2.65;;
33413;SDS011;60055;41.884;12.534;2023-07-29T03:00:41;8.63;;;2.30;;
33413;SDS011;60055;41.884;12.534;2023-07-29T03:03:08;6.93;;;2.20;;
33413;SDS011;60055;41.884;12.534;2023-07-29T03:05:34;3.88;;;2.00;;
33413;SDS011;60055;41.884;12.534;2023-07-29T03:07:59;5.32;;;2.70;;
33413;SDS011;60055;41.884;12.534;2023-07-29T03:10:25;7.25;;;2.40;;
33413;SDS011;60055;41.884;12.534;2023-07-29T03:12:50;6.68;;;2.30;;
33413;SDS011;60055;41.884;12.534;2023-07-29T03:15:16;7.03;;;2.47;;
33413;SDS011;60055;41.884;12.534;2023-07-29T03:17:41;5.75;;;2.20;;
33413;SDS011;60055;41.884;12.534;2023-07-29T03:20:07;5.65;;;2.15;;
33413;SDS011;60055;41.884;12.534;2023-07-29T03:22:33;7.18;;;2.08;;
33413;SDS011;60055;41.884;12.534;2023-07-29T03:24:58;7.65;;;2.50;;
33413;SDS011;60055;41.884;12.534;2023-07-29T03:27:23;7.07;;;2.33;;
33413;SDS011;60055;41.884;12.534;2023-07-29T03:29:49;5.03;;;2.13;;
33413;SDS011;60055;41.884;12.534;2023-07-29T03:32:14;7.70;;;2.70;;
33413;SDS011;60055;41.884;12.534;2023-07-29T03:34:40;9.95;;;2.50;;
33413;SDS011;60055;41.884;12.534;2023-07-29T03:37:05;8.48;;;2.70;;
33413;SDS011;60055;41.884;12.534;2023-07-29T03:39:31;10.23;;;2.70;;
33413;SDS011;60055;41.884;12.534;2023-07-29T03:41:57;6.18;;;2.50;;
33413;SDS011;60055;41.884;12.534;2023-07-29T03:44:23;7.47;;;2.55;;
33413;SDS011;60055;41.884;12.534;2023-07-29T03:46:48;7.82;;;2.47;;
33413;SDS011;60055;41.884;12.534;2023-07-29T03:49:14;7.28;;;2.40;;
33413;SDS011;60055;41.884;12.534;2023-07-29T03:51:39;6.63;;;2.60;;
33413;SDS011;60055;41.884;12.534;2023-07-29T03:54:05;9.80;;;2.78;;
33413;SDS011;60055;41.884;12.534;2023-07-29T03:56:31;8.02;;;2.88;;
33413;SDS011;60055;41.884;12.534;2023-07-29T03:59:03;8.27;;;2.70;;
33413;SDS011;60055;41.884;12.534;2023-07-29T04:01:29;9.53;;;2.57;;
33413;SDS011;60055;41.884;12.534;2023-07-29T04:03:55;8.43;;;2.50;;
33413;SDS011;60055;41.884;12.534;2023-07-29T04:06:20;10.73;;;2.60;;
33413;SDS011;60055;41.884;12.534;2023-07-29T04:08:46;8.70;;;2.75;;
33413;SDS011;60055;41.884;12.534;2023-07-29T04:11:11;6.53;;;2.45;;
33413;SDS011;60055;41.884;12.534;2023-07-29T04:13:37;7.78;;;2.78;;
33413;SDS011;60055;41.884;12.534;2023-07-29T04:16:03;6.47;;;2.58;;
33413;SDS011;60055;41.884;12.534;2023-07-29T04:18:29;7.82;;;2.53;;
33413;SDS011;60055;41.884;12.534;2023-07-29T04:20:54;7.50;;;2.88;;
33413;SDS011;60055;41.884;12.534;2023-07-29T04:23:20;9.95;;;3.10;;
33413;SDS011;60055;41.884;12.534;2023-07-29T04:25:45;8.25;;;3.00;;
33413;SDS011;60055;41.884;12.534;2023-07-29T04:28:11;7.82;;;2.90;;
33413;SDS011;60055;41.884;12.534;2023-07-29T04:30:36;9.02;;;2.90;;
33413;SDS011;60055;41.884;12.534;2023-07-29T04:33:02;9.40;;;2.60;;
33413;SDS011;60055;41.884;12.534;2023-07-29T04:35:27;10.13;;;2.80;;
33413;SDS011;60055;41.884;12.534;2023-07-29T04:37:53;7.30;;;2.70;;
33413;SDS011;60055;41.884;12.534;2023-07-29T04:40:18;7.68;;;2.78;;
33413;SDS011;60055;41.884;12.534;2023-07-29T04:42:44;13.32;;;2.85;;
33413;SDS011;60055;41.884;12.534;2023-07-29T04:45:09;7.65;;;2.92;;
33413;SDS011;60055;41.884;12.534;2023-07-29T04:47:35;10.60;;;2.95;;
33413;SDS011;60055;41.884;12.534;2023-07-29T04:50:00;10.32;;;3.08;;
33413;SDS011;60055;41.884;12.534;2023-07-29T04:52:25;6.30;;;2.47;;
33413;SDS011;60055;41.884;12.534;2023-07-29T04:54:51;7.75;;;2.38;;
33413;SDS011;60055;41.884;12.534;2023-07-29T04:57:16;7.90;;;3.08;;
33413;SDS011;60055;41.884;12.534;2023-07-29T04:59:42;8.52;;;2.92;;
33413;SDS011;60055;41.884;12.534;2023-07-29T05:02:07;8.43;;;2.50;;
33413;SDS011;60055;41.884;12.534;2023-07-29T05:04:32;8.10;;;2.35;;
33413;SDS011;60055;41.884;12.534;2023-07-29T05:06:58;8.85;;;2.50;;
33413;SDS011;60055;41.884;12.534;2023-07-29T05:09:23;6.20;;;2.28;;
33413;SDS011;60055;41.884;12.534;2023-07-29T05:11:49;8.35;;;2.42;;
33413;SDS011;60055;41.884;12.534;2023-07-29T05:14:15;8.32;;;2.28;;
33413;SDS011;60055;41.884;12.534;2023-07-29T05:16:41;9.77;;;2.40;;
33413;SDS011;60055;41.884;12.534;2023-07-29T05:19:07;9.45;;;2.30;;
33413;SDS011;60055;41.884;12.534;2023-07-29T05:21:32;9.15;;;2.22;;
33413;SDS011;60055;41.884;12.534;2023-07-29T05:23:58;6.80;;;2.35;;
33413;SDS011;60055;41.884;12.534;2023-07-29T05:26:23;9.35;;;2.13;;
33413;SDS011;60055;41.884;12.534;2023-07-29T05:28:49;7.80;;;2.08;;
33413;SDS011;60055;41.884;12.534;2023-07-29T05:31:14;7.07;;;2.65;;
33413;SDS011;60055;41.884;12.534;2023-07-29T05:33:40;7.18;;;2.17;;
33413;SDS011;60055;41.884;12.534;2023-07-29T05:36:05;8.32;;;2.17;;
33413;SDS011;60055;41.884;12.534;2023-07-29T05:38:31;6.72;;;2.47;;
33413;SDS011;60055;41.884;12.534;2023-07-29T05:40:56;5.32;;;2.10;;
33413;SDS011;60055;41.884;12.534;2023-07-29T05:43:23;6.53;;;2.20;;
33413;SDS011;60055;41.884;12.534;2023-07-29T05:45:49;6.95;;;1.95;;
33413;SDS011;60055;41.884;12.534;2023-07-29T05:48:15;6.53;;;2.17;;
33413;SDS011;60055;41.884;12.534;2023-07-29T05:50:41;5.43;;;1.95;;
33413;SDS011;60055;41.884;12.534;2023-07-29T05:53:06;7.70;;;2.50;;
33413;SDS011;60055;41.884;12.534;2023-07-29T05:55:32;10.20;;;2.42;;
33413;SDS011;60055;41.884;12.534;2023-07-29T05:57:57;8.55;;;2.28;;
33413;SDS011;60055;41.884;12.534;2023-07-29T06:00:23;9.68;;;2.33;;
33413;SDS011;60055;41.884;12.534;2023-07-29T06:02:48;10.02;;;2.30;;
33413;SDS011;60055;41.884;12.534;2023-07-29T06:05:14;10.90;;;2.20;;
33413;SDS011;60055;41.884;12.534;2023-07-29T06:07:39;9.70;;;2.50;;
33413;SDS011;60055;41.884;12.534;2023-07-29T06:10:09;8.75;;;2.40;;
33413;SDS011;60055;41.884;12.534;2023-07-29T06:12:37;6.38;;;2.22;;
33413;SDS011;60055;41.884;12.534;2023-07-29T06:15:02;8.75;;;2.30;;
33413;SDS011;60055;41.884;12.534;2023-07-29T06:17:28;7.90;;;2.40;;
33413;SDS011;60055;41.884;12.534;2023-07-29T06:19:53;6.90;;;1.80;;
33413;SDS011;60055;41.884;12.534;2023-07-29T06:22:19;9.00;;;2.15;;
33413;SDS011;60055;41.884;12.534;2023-07-29T06:24:45;12.70;;;2.55;;
33413;SDS011;60055;41.884;12.534;2023-07-29T06:27:10;9.32;;;2.80;;
33413;SDS011;60055;41.884;12.534;2023-07-29T06:29:35;9.88;;;2.33;;
33413;SDS011;60055;41.884;12.534;2023-07-29T06:32:01;5.55;;;2.05;;
33413;SDS011;60055;41.884;12.534;2023-07-29T06:34:26;5.47;;;2.10;;
33413;SDS011;60055;41.884;12.534;2023-07-29T06:36:52;8.43;;;2.20;;
33413;SDS011;60055;41.884;12.534;2023-07-29T06:39:17;6.35;;;2.05;;
33413;SDS011;60055;41.884;12.534;2023-07-29T06:41:43;7.07;;;2.20;;
33413;SDS011;60055;41.884;12.534;2023-07-29T06:44:08;5.43;;;2.20;;
33413;SDS011;60055;41.884;12.534;2023-07-29T06:46:33;6.88;;;2.45;;
33413;SDS011;60055;41.884;12.534;2023-07-29T06:48:59;5.45;;;2.13;;
33413;SDS011;60055;41.884;12.534;2023-07-29T06:51:24;9.13;;;2.30;;
33413;SDS011;60055;41.884;12.534;2023-07-29T06:53:50;6.68;;;2.08;;
33413;SDS011;60055;41.884;12.534;2023-07-29T06:56:15;9.60;;;2.40;;
33413;SDS011;60055;41.884;12.534;2023-07-29T06:58:43;6.55;;;2.35;;
33413;SDS011;60055;41.884;12.534;2023-07-29T07:01:09;5.43;;;2.20;;
33413;SDS011;60055;41.884;12.534;2023-07-29T07:03:34;7.35;;;2.00;;
33413;SDS011;60055;41.884;12.534;2023-07-29T07:06:00;7.55;;;2.20;;
33413;SDS011;60055;41.884;12.534;2023-07-29T07:08:25;10.00;;;2.55;;
33413;SDS011;60055;41.884;12.534;2023-07-29T07:10:50;7.68;;;2.13;;
33413;SDS011;60055;41.884;12.534;2023-07-29T07:13:16;9.73;;;2.25;;
33413;SDS011;60055;41.884;12.534;2023-07-29T07:15:41;5.85;;;2.30;;
33413;SDS011;60055;41.884;12.534;2023-07-29T07:18:07;8.13;;;2.03;;
33413;SDS011;60055;41.884;12.534;2023-07-29T07:20:32;6.45;;;2.15;;
33413;SDS011;60055;41.884;12.534;2023-07-29T07:22:57;6.38;;;2.15;;
33413;SDS011;60055;41.884;12.534;2023-07-29T07:25:23;7.97;;;2.22;;
33413;SDS011;60055;41.884;12.534;2023-07-29T07:27:48;11.00;;;2.10;;
33413;SDS011;60055;41.884;12.534;2023-07-29T07:30:14;7.03;;;1.90;;
33413;SDS011;60055;41.884;12.534;2023-07-29T07:32:39;8.35;;;1.80;;
33413;SDS011;60055;41.884;12.534;2023-07-29T07:35:05;7.97;;;2.20;;
33413;SDS011;60055;41.884;12.534;2023-07-29T07:37:30;9.13;;;2.20;;
33413;SDS011;60055;41.884;12.534;2023-07-29T07:39:56;8.90;;;2.00;;
33413;SDS011;60055;41.884;12.534;2023-07-29T07:42:21;7.55;;;2.00;;
33413;SDS011;60055;41.884;12.534;2023-07-29T07:44:47;11.48;;;2.20;;
33413;SDS011;60055;41.884;12.534;2023-07-29T07:47:12;8.23;;;1.92;;
33413;SDS011;60055;41.884;12.534;2023-07-29T07:49:38;4.68;;;1.73;;
33413;SDS011;60055;41.884;12.534;2023-07-29T07:52:03;6.10;;;1.90;;
33413;SDS011;60055;41.884;12.534;2023-07-29T07:54:29;9.93;;;2.20;;
33413;SDS011;60055;41.884;12.534;2023-07-29T07:56:54;5.38;;;1.85;;
33413;SDS011;60055;41.884;12.534;2023-07-29T07:59:19;9.88;;;2.58;;
33413;SDS011;60055;41.884;12.534;2023-07-29T08:01:45;8.10;;;2.10;;
33413;SDS011;60055;41.884;12.534;2023-07-29T08:04:11;4.97;;;1.95;;
33413;SDS011;60055;41.884;12.534;2023-07-29T08:06:37;7.00;;;1.98;;
33413;SDS011;60055;41.884;12.534;2023-07-29T08:09:02;7.68;;;2.15;;
33413;SDS011;60055;41.884;12.534;2023-07-29T08:11:28;4.70;;;2.05;;
33413;SDS011;60055;41.884;12.534;2023-07-29T08:13:53;12.25;;;2.22;;
33413;SDS011;60055;41.884;12.534;2023-07-29T08:16:19;6.63;;;2.22;;
33413;SDS011;60055;41.884;12.534;2023-07-29T08:18:44;8.43;;;2.05;;
33413;SDS011;60055;41.884;12.534;2023-07-29T08:21:10;7.68;;;2.00;;
33413;SDS011;60055;41.884;12.534;2023-07-29T08:23:36;6.82;;;3.85;;
33413;SDS011;60055;41.884;12.534;2023-07-29T08:26:03;8.05;;;4.43;;
33413;SDS011;60055;41.884;12.534;2023-07-29T08:30:57;4.32;;;2.38;;
33413;SDS011;60055;41.884;12.534;2023-07-29T08:33:23;9.88;;;2.10;;
33413;SDS011;60055;41.884;12.534;2023-07-29T08:35:49;7.85;;;2.22;;
33413;SDS011;60055;41.884;12.534;2023-07-29T08:38:15;9.25;;;2.63;;
33413;SDS011;60055;41.884;12.534;2023-07-29T08:40:42;9.27;;;2.92;;
33413;SDS011;60055;41.884;12.534;2023-07-29T08:43:13;11.40;;;3.10;;
33413;SDS011;60055;41.884;12.534;2023-07-29T08:45:41;10.63;;;2.47;;
33413;SDS011;60055;41.884;12.534;2023-07-29T08:48:09;11.57;;;2.72;;
33413;SDS011;60055;41.884;12.534;2023-07-29T08:50:36;17.67;;;2.83;;
33413;SDS011;60055;41.884;12.534;2023-07-29T08:53:03;10.48;;;3.00;;
33413;SDS011;60055;41.884;12.534;2023-07-29T08:55:30;7.35;;;2.40;;
33413;SDS011;60055;41.884;12.534;2023-07-29T08:57:56;14.82;;;3.30;;
33413;SDS011;60055;41.884;12.534;2023-07-29T09:00:23;9.57;;;2.53;;
33413;SDS011;60055;41.884;12.534;2023-07-29T09:02:50;6.57;;;2.33;;
33413;SDS011;60055;41.884;12.534;2023-07-29T09:05:15;6.30;;;2.40;;
33413;SDS011;60055;41.884;12.534;2023-07-29T09:07:41;5.40;;;2.40;;
33413;SDS011;60055;41.884;12.534;2023-07-29T09:10:11;7.03;;;2.15;;
33413;SDS011;60055;41.884;12.534;2023-07-29T09:12:38;5.93;;;2.28;;
33413;SDS011;60055;41.884;12.534;2023-07-29T09:15:05;8.27;;;2.25;;
33413;SDS011;60055;41.884;12.534;2023-07-29T09:17:33;5.90;;;2.22;;
33413;SDS011;60055;41.884;12.534;2023-07-29T09:19:59;6.40;;;2.50;;
33413;SDS011;60055;41.884;12.534;2023-07-29T09:22:26;10.02;;;2.33;;
33413;SDS011;60055;41.884;12.534;2023-07-29T09:24:52;9.07;;;2.15;;
33413;SDS011;60055;41.884;12.534;2023-07-29T09:27:27;8.63;;;2.30;;
33413;SDS011;60055;41.884;12.534;2023-07-29T09:29:57;7.10;;;2.40;;
33413;SDS011;60055;41.884;12.534;2023-07-29T09:32:23;7.97;;;2.30;;
33413;SDS011;60055;41.884;12.534;2023-07-29T09:34:49;5.43;;;2.20;;
33413;SDS011;60055;41.884;12.534;2023-07-29T09:37:21;8.15;;;2.30;;
33413;SDS011;60055;41.884;12.534;2023-07-29T09:39:48;12.73;;;2.83;;
33413;SDS011;60055;41.884;12.534;2023-07-29T09:42:18;7.65;;;2.55;;
33413;SDS011;60055;41.884;12.534;2023-07-29T09:44:45;8.57;;;2.42;;
33413;SDS011;60055;41.884;12.534;2023-07-29T09:47:18;3.85;;;1.90;;
33413;SDS011;60055;41.884;12.534;2023-07-29T09:49:47;5.45;;;2.00;;
33413;SDS011;60055;41.884;12.534;2023-07-29T09:52:16;5.05;;;2.08;;
33413;SDS011;60055;41.884;12.534;2023-07-29T09:54:43;5.95;;;2.00;;
33413;SDS011;60055;41.884;12.534;2023-07-29T09:57:10;5.28;;;2.08;;
33413;SDS011;60055;41.884;12.534;2023-07-29T09:59:38;9.82;;;2.20;;
33413;SDS011;60055;41.884;12.534;2023-07-29T10:02:03;13.68;;;6.90;;
33413;SDS011;60055;41.884;12.534;2023-07-29T10:04:29;18.55;;;11.23;;
33413;SDS011;60055;41.884;12.534;2023-07-29T10:06:56;10.63;;;3.75;;
33413;SDS011;60055;41.884;12.534;2023-07-29T10:09:23;6.97;;;2.20;;
33413;SDS011;60055;41.884;12.534;2023-07-29T10:11:50;6.13;;;2.42;;
33413;SDS011;60055;41.884;12.534;2023-07-29T10:14:18;5.80;;;2.38;;
33413;SDS011;60055;41.884;12.534;2023-07-29T10:16:44;9.65;;;2.50;;
33413;SDS011;60055;41.884;12.534;2023-07-29T10:19:11;11.63;;;2.60;;
33413;SDS011;60055;41.884;12.534;2023-07-29T10:21:39;5.07;;;2.30;;
33413;SDS011;60055;41.884;12.534;2023-07-29T10:24:09;7.05;;;2.20;;
33413;SDS011;60055;41.884;12.534;2023-07-29T10:26:41;5.07;;;2.20;;
33413;SDS011;60055;41.884;12.534;2023-07-29T10:29:12;6.63;;;2.22;;
33413;SDS011;60055;41.884;12.534;2023-07-29T10:31:38;9.98;;;2.40;;
33413;SDS011;60055;41.884;12.534;2023-07-29T10:34:08;4.18;;;2.10;;
33413;SDS011;60055;41.884;12.534;2023-07-29T10:36:34;9.95;;;2.40;;
33413;SDS011;60055;41.884;12.534;2023-07-29T10:39:01;11.60;;;2.53;;
33413;SDS011;60055;41.884;12.534;2023-07-29T10:47:13;9.63;;;2.20;;
33413;SDS011;60055;41.884;12.534;2023-07-29T10:49:42;8.83;;;3.43;;
33413;SDS011;60055;41.884;12.534;2023-07-29T10:52:08;7.70;;;2.60;;
33413;SDS011;60055;41.884;12.534;2023-07-29T10:54:44;10.70;;;2.38;;
33413;SDS011;60055;41.884;12.534;2023-07-29T10:57:14;6.00;;;1.88;;
33413;SDS011;60055;41.884;12.534;2023-07-29T10:59:40;6.32;;;2.20;;
33413;SDS011;60055;41.884;12.534;2023-07-29T11:02:18;6.60;;;2.38;;
33413;SDS011;60055;41.884;12.534;2023-07-29T11:04:50;11.15;;;2.60;;
33413;SDS011;60055;41.884;12.534;2023-07-29T11:17:35;9.85;;;2.65;;
33413;SDS011;60055;41.884;12.534;2023-07-29T11:20:02;6.53;;;2.22;;
33413;SDS011;60055;41.884;12.534;2023-07-29T11:22:28;10.13;;;2.17;;
33413;SDS011;60055;41.884;12.534;2023-07-29T11:24:54;8.50;;;2.22;;
33413;SDS011;60055;41.884;12.534;2023-07-29T11:27:20;5.30;;;2.35;;
33413;SDS011;60055;41.884;12.534;2023-07-29T11:29:46;10.63;;;2.53;;
33413;SDS011;60055;41.884;12.534;2023-07-29T11:32:12;6.55;;;2.20;;
33413;SDS011;60055;41.884;12.534;2023-07-29T11:34:38;5.70;;;2.05;;
33413;SDS011;60055;41.884;12.534;2023-07-29T11:37:05;6.88;;;2.13;;
33413;SDS011;60055;41.884;12.534;2023-07-29T11:39:39;7.60;;;1.98;;
33413;SDS011;60055;41.884;12.534;2023-07-29T11:42:05;10.23;;;2.20;;
33413;SDS011;60055;41.884;12.534;2023-07-29T11:44:31;8.10;;;2.10;;
33413;SDS011;60055;41.884;12.534;2023-07-29T11:46:56;7.53;;;2.15;;
33413;SDS011;60055;41.884;12.534;2023-07-29T11:49:21;7.38;;;2.17;;
33413;SDS011;60055;41.884;12.534;2023-07-29T11:51:47;8.98;;;2.13;;
33413;SDS011;60055;41.884;12.534;2023-07-29T11:54:12;6.93;;;2.40;;
33413;SDS011;60055;41.884;12.534;2023-07-29T11:56:38;5.90;;;2.42;;
33413;SDS011;60055;41.884;12.534;2023-07-29T11:59:03;7.25;;;2.30;;
33413;SDS011;60055;41.884;12.534;2023-07-29T12:01:29;10.90;;;3.03;;
33413;SDS011;60055;41.884;12.534;2023-07-29T12:03:55;10.63;;;2.72;;
33413;SDS011;60055;41.884;12.534;2023-07-29T12:06:22;8.23;;;2.40;;
33413;SDS011;60055;41.884;12.534;2023-07-29T12:08:50;7.25;;;3.20;;
33413;SDS011;60055;41.884;12.534;2023-07-29T12:11:16;5.55;;;2.28;;
33413;SDS011;60055;41.884;12.534;2023-07-29T12:13:42;9.23;;;2.03;;
33413;SDS011;60055;41.884;12.534;2023-07-29T12:16:08;7.25;;;2.50;;
33413;SDS011;60055;41.884;12.534;2023-07-29T12:18:33;8.93;;;2.30;;
33413;SDS011;60055;41.884;12.534;2023-07-29T12:20:59;6.93;;;2.30;;
33413;SDS011;60055;41.884;12.534;2023-07-29T12:23:25;8.40;;;2.50;;
33413;SDS011;60055;41.884;12.534;2023-07-29T12:25:57;8.80;;;2.42;;
33413;SDS011;60055;41.884;12.534;2023-07-29T12:28:24;6.07;;;2.30;;
33413;SDS011;60055;41.884;12.534;2023-07-29T12:30:53;5.88;;;2.35;;
33413;SDS011;60055;41.884;12.534;2023-07-29T12:33:35;7.57;;;2.22;;
33413;SDS011;60055;41.884;12.534;2023-07-29T12:36:03;10.00;;;2.20;;
33413;SDS011;60055;41.884;12.534;2023-07-29T12:38:29;9.43;;;2.25;;
33413;SDS011;60055;41.884;12.534;2023-07-29T12:40:55;10.70;;;2.15;;
33413;SDS011;60055;41.884;12.534;2023-07-29T12:43:21;6.55;;;2.30;;
33413;SDS011;60055;41.884;12.534;2023-07-29T12:45:49;6.22;;;2.30;;
33413;SDS011;60055;41.884;12.534;2023-07-29T12:48:15;6.55;;;2.50;;
33413;SDS011;60055;41.884;12.534;2023-07-29T12:50:41;8.20;;;2.33;;
33413;SDS011;60055;41.884;12.534;2023-07-29T12:53:06;8.50;;;2.42;;
33413;SDS011;60055;41.884;12.534;2023-07-29T12:55:33;6.50;;;2.40;;
33413;SDS011;60055;41.884;12.534;2023-07-29T12:57:58;7.90;;;2.35;;
33413;SDS011;60055;41.884;12.534;2023-07-29T13:00:24;9.48;;;2.80;;
33413;SDS011;60055;41.884;12.534;2023-07-29T13:02:50;9.25;;;2.30;;
33413;SDS011;60055;41.884;12.534;2023-07-29T13:05:15;8.05;;;2.28;;
33413;SDS011;60055;41.884;12.534;2023-07-29T13:07:41;8.73;;;2.58;;
33413;SDS011;60055;41.884;12.534;2023-07-29T13:10:08;7.15;;;2.42;;
33413;SDS011;60055;41.884;12.534;2023-07-29T13:12:34;15.82;;;3.15;;
33413;SDS011;60055;41.884;12.534;2023-07-29T13:14:59;25.25;;;3.78;;
33413;SDS011;60055;41.884;12.534;2023-07-29T13:17:25;10.88;;;2.97;;
33413;SDS011;60055;41.884;12.534;2023-07-29T13:19:50;23.15;;;3.20;;
33413;SDS011;60055;41.884;12.534;2023-07-29T13:22:16;13.02;;;3.00;;
33413;SDS011;60055;41.884;12.534;2023-07-29T13:24:42;7.82;;;2.72;;
33413;SDS011;60055;41.884;12.534;2023-07-29T13:27:07;8.52;;;2.40;;
33413;SDS011;60055;41.884;12.534;2023-07-29T13:29:33;10.52;;;2.35;;
33413;SDS011;60055;41.884;12.534;2023-07-29T13:31:58;6.90;;;2.30;;
33413;SDS011;60055;41.884;12.534;2023-07-29T13:34:24;6.25;;;2.20;;
33413;SDS011;60055;41.884;12.534;2023-07-29T13:36:49;7.68;;;2.38;;
33413;SDS011;60055;41.884;12.534;2023-07-29T13:39:15;7.70;;;2.33;;
33413;SDS011;60055;41.884;12.534;2023-07-29T13:41:40;7.75;;;2.47;;
33413;SDS011;60055;41.884;12.534;2023-07-29T13:44:06;7.85;;;2.50;;
33413;SDS011;60055;41.884;12.534;2023-07-29T13:46:31;8.60;;;2.40;;
33413;SDS011;60055;41.884;12.534;2023-07-29T13:48:57;8.45;;;2.45;;
33413;SDS011;60055;41.884;12.534;2023-07-29T13:51:22;19.50;;;3.28;;
33413;SDS011;60055;41.884;12.534;2023-07-29T13:53:48;6.43;;;2.42;;
33413;SDS011;60055;41.884;12.534;2023-07-29T13:56:13;7.78;;;2.40;;
33413;SDS011;60055;41.884;12.534;2023-07-29T13:58:39;6.65;;;2.15;;
33413;SDS011;60055;41.884;12.534;2023-07-29T14:01:05;6.63;;;2.30;;
33413;SDS011;60055;41.884;12.534;2023-07-29T14:03:30;6.18;;;2.20;;
33413;SDS011;60055;41.884;12.534;2023-07-29T14:05:55;6.65;;;1.92;;
33413;SDS011;60055;41.884;12.534;2023-07-29T14:08:21;8.35;;;2.08;;
33413;SDS011;60055;41.884;12.534;2023-07-29T14:10:48;5.53;;;2.20;;
33413;SDS011;60055;41.884;12.534;2023-07-29T14:13:14;5.35;;;1.98;;
33413;SDS011;60055;41.884;12.534;2023-07-29T14:15:40;6.78;;;1.98;;
33413;SDS011;60055;41.884;12.534;2023-07-29T14:18:05;8.15;;;1.95;;
33413;SDS011;60055;41.884;12.534;2023-07-29T14:20:31;8.85;;;2.00;;
33413;SDS011;60055;41.884;12.534;2023-07-29T14:22:57;7.60;;;2.03;;
33413;SDS011;60055;41.884;12.534;2023-07-29T14:25:23;5.47;;;1.70;;
33413;SDS011;60055;41.884;12.534;2023-07-29T14:27:48;8.48;;;2.20;;
33413;SDS011;60055;41.884;12.534;2023-07-29T14:30:14;7.35;;;1.80;;
33413;SDS011;60055;41.884;12.534;2023-07-29T14:32:39;8.23;;;1.70;;
33413;SDS011;60055;41.884;12.534;2023-07-29T14:35:05;5.75;;;1.73;;
33413;SDS011;60055;41.884;12.534;2023-07-29T14:37:31;6.70;;;1.88;;
33413;SDS011;60055;41.884;12.534;2023-07-29T14:40:00;7.45;;;2.20;;
33413;SDS011;60055;41.884;12.534;2023-07-29T14:42:26;7.57;;;2.03;;
33413;SDS011;60055;41.884;12.534;2023-07-29T14:44:52;8.05;;;2.00;;
33413;SDS011;60055;41.884;12.534;2023-07-29T14:47:17;7.75;;;1.80;;
33413;SDS011;60055;41.884;12.534;2023-07-29T14:49:44;10.80;;;2.38;;
33413;SDS011;60055;41.884;12.534;2023-07-29T14:52:09;7.70;;;2.30;;
33413;SDS011;60055;41.884;12.534;2023-07-29T14:54:35;9.40;;;2.40;;